createdAt,value
2019-03-29T00:00:11.949Z,7.80
2019-03-29T00:02:43.290Z,7.73
2019-03-29T00:05:14.829Z,7.70
2019-03-29T00:07:46.239Z,7.68
2019-03-29T00:10:17.513Z,7.65
2019-03-29T00:12:49.064Z,7.59
2019-03-29T00:15:20.345Z,7.59
2019-03-29T00:17:51.955Z,7.61
2019-03-29T00:20:23.573Z,7.53
2019-03-29T00:22:55.063Z,7.50
2019-03-29T00:25:26.861Z,7.48
2019-03-29T00:27:58.344Z,7.46
2019-03-29T00:30:29.526Z,7.48
2019-03-29T00:33:00.913Z,7.46
2019-03-29T00:35:32.422Z,7.43
2019-03-29T00:38:03.907Z,7.38
2019-03-29T00:40:35.569Z,7.36
2019-03-29T00:43:07.026Z,7.32
2019-03-29T00:45:38.494Z,7.25
2019-03-29T00:48:10.153Z,7.20
2019-03-29T00:50:41.783Z,7.17
2019-03-29T00:53:13.372Z,7.10
2019-03-29T00:55:44.666Z,7.01
2019-03-29T00:58:16.060Z,6.99
2019-03-29T01:00:47.488Z,6.99
2019-03-29T01:03:18.914Z,6.98
2019-03-29T01:05:50.333Z,6.95
2019-03-29T01:08:21.884Z,6.97
2019-03-29T01:10:53.265Z,6.96
2019-03-29T01:13:24.924Z,6.88
2019-03-29T01:15:56.479Z,6.90
2019-03-29T01:18:27.933Z,7.01
2019-03-29T01:20:59.296Z,6.92
2019-03-29T01:23:30.860Z,6.87
2019-03-29T01:26:02.419Z,6.90
2019-03-29T01:28:33.988Z,6.84
2019-03-29T01:31:05.440Z,6.81
2019-03-29T01:33:36.792Z,6.88
2019-03-29T01:36:08.271Z,6.79
2019-03-29T01:38:39.627Z,6.79
2019-03-29T01:41:10.937Z,6.77
2019-03-29T01:43:42.421Z,6.70
2019-03-29T01:46:13.886Z,6.65
2019-03-29T01:48:45.289Z,6.63
2019-03-29T01:51:16.691Z,6.58
2019-03-29T01:53:48.111Z,6.62
2019-03-29T01:56:19.545Z,6.62
2019-03-29T01:58:51.005Z,6.62
2019-03-29T02:01:22.376Z,6.62
2019-03-29T02:03:53.869Z,6.52
2019-03-29T02:06:25.192Z,6.44
2019-03-29T02:08:56.820Z,6.46
2019-03-29T02:11:28.352Z,6.43
2019-03-29T02:13:59.628Z,6.49
2019-03-29T02:16:30.996Z,6.43
2019-03-29T02:19:02.213Z,6.38
2019-03-29T02:21:33.543Z,6.33
2019-03-29T02:24:04.968Z,6.32
2019-03-29T02:26:36.139Z,6.31
2019-03-29T02:29:07.370Z,6.37
2019-03-29T02:31:42.075Z,6.38
2019-03-29T02:34:11.546Z,6.41
2019-03-29T02:36:42.824Z,6.35
2019-03-29T02:39:14.172Z,6.31
2019-03-29T02:41:46.601Z,6.25
2019-03-29T02:44:18.171Z,6.23
2019-03-29T02:46:49.443Z,6.25
2019-03-29T02:49:20.754Z,6.29
2019-03-29T02:51:51.981Z,6.26
2019-03-29T02:54:23.233Z,6.22
2019-03-29T02:56:54.607Z,6.24
2019-03-29T02:59:25.972Z,6.21
2019-03-29T03:01:57.314Z,6.30
2019-03-29T03:04:28.654Z,6.23
2019-03-29T03:06:59.957Z,6.20
2019-03-29T03:09:31.252Z,6.24
2019-03-29T03:12:02.423Z,6.14
2019-03-29T03:14:33.708Z,6.13
2019-03-29T03:17:05.009Z,6.11
2019-03-29T03:19:36.316Z,6.14
2019-03-29T03:22:07.633Z,6.18
2019-03-29T03:24:38.875Z,6.07
2019-03-29T03:27:10.177Z,6.07
2019-03-29T03:29:41.561Z,6.10
2019-03-29T03:32:12.768Z,6.13
2019-03-29T03:34:44.097Z,6.15
2019-03-29T03:37:15.400Z,6.21
2019-03-29T03:39:46.641Z,6.20
2019-03-29T03:42:17.896Z,6.16
2019-03-29T03:44:49.176Z,6.21
2019-03-29T03:47:20.488Z,6.15
2019-03-29T03:49:51.775Z,6.11
2019-03-29T03:52:23.036Z,6.07
2019-03-29T03:54:54.278Z,5.99
2019-03-29T03:57:26.540Z,5.96
2019-03-29T03:59:58.504Z,5.94
2019-03-29T04:02:29.650Z,5.87
2019-03-29T04:05:00.901Z,5.79
2019-03-29T04:07:32.135Z,5.73
2019-03-29T04:10:03.474Z,5.61
2019-03-29T04:12:34.643Z,5.58
2019-03-29T04:15:06.400Z,5.54
2019-03-29T04:17:37.684Z,5.45
2019-03-29T04:20:09.164Z,5.45
2019-03-29T04:22:40.440Z,5.41
2019-03-29T04:25:11.703Z,5.44
2019-03-29T04:27:43.000Z,5.48
2019-03-29T04:30:14.983Z,5.55
2019-03-29T04:32:46.254Z,5.52
2019-03-29T04:35:17.560Z,5.49
2019-03-29T04:37:48.939Z,5.39
2019-03-29T04:40:20.233Z,5.32
2019-03-29T04:42:51.454Z,5.28
2019-03-29T04:45:22.790Z,5.27
2019-03-29T04:47:54.042Z,5.21
2019-03-29T04:50:25.235Z,5.17
2019-03-29T04:52:56.537Z,5.18
2019-03-29T04:55:27.806Z,5.20
2019-03-29T04:57:59.069Z,5.23
2019-03-29T05:00:30.412Z,5.17
2019-03-29T05:03:01.677Z,5.14
2019-03-29T05:05:32.944Z,5.19
2019-03-29T05:08:04.220Z,5.31
2019-03-29T05:10:35.464Z,5.31
2019-03-29T05:13:06.712Z,5.29
2019-03-29T05:15:37.893Z,5.22
2019-03-29T05:18:09.144Z,5.33
2019-03-29T05:20:40.351Z,5.32
2019-03-29T05:23:11.664Z,5.38
2019-03-29T05:25:42.859Z,5.42
2019-03-29T05:28:13.958Z,5.52
2019-03-29T05:30:45.273Z,5.46
2019-03-29T05:33:16.642Z,5.45
2019-03-29T05:35:47.856Z,5.54
2019-03-29T05:38:19.119Z,5.67
2019-03-29T05:40:50.307Z,5.73
2019-03-29T05:43:21.594Z,5.83
2019-03-29T05:45:52.806Z,5.87
2019-03-29T05:48:24.013Z,5.94
2019-03-29T05:50:55.281Z,5.96
2019-03-29T05:53:26.683Z,6.04
2019-03-29T05:55:58.013Z,6.12
2019-03-29T05:58:29.289Z,6.16
2019-03-29T06:01:00.515Z,6.23
2019-03-29T06:03:31.686Z,6.30
2019-03-29T06:06:02.965Z,6.44
2019-03-29T06:08:34.134Z,6.49
2019-03-29T06:11:05.385Z,6.42
2019-03-29T06:13:36.642Z,6.45
2019-03-29T06:16:07.991Z,6.55
2019-03-29T06:18:39.153Z,6.55
2019-03-29T06:21:10.379Z,6.68
2019-03-29T06:23:41.577Z,6.71
2019-03-29T06:26:12.808Z,6.85
2019-03-29T06:28:44.114Z,6.92
2019-03-29T06:31:15.274Z,6.96
2019-03-29T06:33:46.463Z,7.03
2019-03-29T06:36:18.522Z,7.14
2019-03-29T06:38:50.816Z,7.21
2019-03-29T06:41:22.062Z,7.25
2019-03-29T06:43:53.336Z,7.43
2019-03-29T06:46:24.623Z,7.48
2019-03-29T06:48:55.924Z,7.64
2019-03-29T06:51:27.208Z,7.83
2019-03-29T06:53:58.402Z,8.00
2019-03-29T06:56:29.743Z,8.16
2019-03-29T06:59:00.874Z,8.43
2019-03-29T07:01:33.982Z,8.47
2019-03-29T07:04:05.284Z,8.69
2019-03-29T07:06:36.578Z,9.11
2019-03-29T07:09:08.517Z,9.23
2019-03-29T07:11:39.874Z,9.48
2019-03-29T07:14:11.273Z,9.71
2019-03-29T07:16:42.564Z,10.06
2019-03-29T07:19:13.709Z,10.41
2019-03-29T07:21:44.973Z,10.39
2019-03-29T07:24:16.155Z,10.25
2019-03-29T07:26:47.410Z,10.36
2019-03-29T07:29:18.498Z,10.42
2019-03-29T07:31:52.994Z,10.41
2019-03-29T07:34:22.830Z,10.58
2019-03-29T07:36:53.936Z,10.58
2019-03-29T07:39:25.214Z,10.96
2019-03-29T07:41:56.535Z,11.39
2019-03-29T07:44:27.784Z,11.58
2019-03-29T07:46:59.127Z,11.74
2019-03-29T07:49:30.463Z,11.85
2019-03-29T07:52:01.760Z,12.03
2019-03-29T07:54:33.009Z,12.43
2019-03-29T07:57:04.265Z,12.51
2019-03-29T07:59:35.558Z,12.04
2019-03-29T08:02:06.868Z,11.42
2019-03-29T08:04:38.168Z,11.03
2019-03-29T08:07:09.453Z,11.21
2019-03-29T08:09:40.680Z,11.41
2019-03-29T08:12:11.952Z,11.46
2019-03-29T08:14:43.278Z,12.05
2019-03-29T08:17:14.533Z,12.39
2019-03-29T08:19:46.242Z,12.50
2019-03-29T08:22:17.531Z,12.55
2019-03-29T08:24:48.750Z,12.26
2019-03-29T08:27:20.044Z,12.61
2019-03-29T08:29:51.375Z,13.04
2019-03-29T08:32:22.709Z,12.84
2019-03-29T08:34:53.996Z,12.94
2019-03-29T08:37:25.177Z,12.48
2019-03-29T08:39:56.730Z,13.18
2019-03-29T08:42:28.082Z,13.24
2019-03-29T08:44:59.318Z,13.81
2019-03-29T08:47:30.581Z,14.25
2019-03-29T08:50:01.862Z,14.84
2019-03-29T08:52:33.082Z,15.28
2019-03-29T08:55:04.909Z,15.92
2019-03-29T08:57:36.208Z,16.18
2019-03-29T09:00:08.846Z,15.69
2019-03-29T09:02:40.126Z,15.03
2019-03-29T09:05:11.495Z,14.83
2019-03-29T09:07:45.114Z,15.17
2019-03-29T09:10:26.007Z,15.54
2019-03-29T09:12:57.251Z,15.35
2019-03-29T09:15:28.609Z,15.89
2019-03-29T09:18:00.287Z,16.54
2019-03-29T09:20:34.275Z,16.99
2019-03-29T09:23:04.573Z,17.70
2019-03-29T09:25:36.233Z,17.57
2019-03-29T09:28:07.484Z,17.05
2019-03-29T09:30:38.765Z,17.42
2019-03-29T09:33:10.104Z,17.29
2019-03-29T09:35:42.973Z,17.52
2019-03-29T09:38:14.294Z,17.73
2019-03-29T09:40:57.440Z,18.42
2019-03-29T09:43:18.654Z,18.59
2019-03-29T09:45:49.891Z,18.45
2019-03-29T09:48:21.849Z,17.58
2019-03-29T09:50:53.091Z,18.27
2019-03-29T09:53:24.954Z,18.54
2019-03-29T09:55:56.195Z,19.15
2019-03-29T09:58:27.524Z,19.79
2019-03-29T10:00:58.782Z,18.68
2019-03-29T10:03:30.151Z,17.70
2019-03-29T10:06:02.117Z,17.93
2019-03-29T10:08:33.453Z,18.01
2019-03-29T10:11:04.754Z,17.65
2019-03-29T10:13:35.967Z,16.76
2019-03-29T10:16:07.216Z,16.01
2019-03-29T10:18:38.474Z,16.00
2019-03-29T10:21:09.760Z,17.03
2019-03-29T10:23:41.042Z,16.47
2019-03-29T10:26:12.306Z,17.75
2019-03-29T10:28:43.552Z,18.31
2019-03-29T10:31:14.810Z,18.10
2019-03-29T10:33:48.863Z,17.94
2019-03-29T10:36:18.854Z,18.22
2019-03-29T10:38:50.113Z,19.53
2019-03-29T10:41:22.556Z,20.55
2019-03-29T10:43:54.232Z,20.06
2019-03-29T10:46:26.023Z,18.57
2019-03-29T10:48:57.545Z,17.86
2019-03-29T10:51:28.802Z,17.20
2019-03-29T10:54:00.065Z,17.10
2019-03-29T10:56:34.300Z,17.12
2019-03-29T10:59:04.333Z,17.68
2019-03-29T11:01:35.445Z,17.74
2019-03-29T11:04:06.743Z,16.92
2019-03-29T11:06:37.999Z,17.50
2019-03-29T11:09:09.974Z,18.28
2019-03-29T11:11:41.123Z,18.81
2019-03-29T11:14:12.385Z,18.99
2019-03-29T11:16:43.786Z,19.18
2019-03-29T11:19:15.015Z,19.53
2019-03-29T11:21:46.309Z,20.38
2019-03-29T11:24:17.742Z,20.04
2019-03-29T11:26:49.064Z,20.21
2019-03-29T11:29:20.344Z,20.07
2019-03-29T11:31:52.933Z,20.00
2019-03-29T11:34:24.961Z,20.35
2019-03-29T11:36:56.147Z,20.41
2019-03-29T11:39:27.684Z,18.88
2019-03-29T11:41:59.156Z,19.26
2019-03-29T11:44:30.530Z,18.93
2019-03-29T11:47:01.813Z,19.16
2019-03-29T11:49:33.335Z,19.71
2019-03-29T11:52:04.721Z,20.67
2019-03-29T11:54:36.026Z,21.43
2019-03-29T11:57:07.381Z,22.35
2019-03-29T11:59:40.307Z,22.39
2019-03-29T12:02:11.652Z,21.30
2019-03-29T12:04:42.894Z,20.36
2019-03-29T12:07:14.225Z,20.35
2019-03-29T12:09:45.491Z,21.24
2019-03-29T12:12:17.514Z,21.63
2019-03-29T12:14:48.874Z,22.15
2019-03-29T12:17:20.095Z,21.95
2019-03-29T12:19:51.436Z,23.30
2019-03-29T12:22:22.721Z,22.43
2019-03-29T12:24:53.838Z,23.89
2019-03-29T12:27:25.046Z,23.88
2019-03-29T12:29:56.227Z,23.82
2019-03-29T12:32:27.484Z,23.10
2019-03-29T12:34:58.807Z,24.34
2019-03-29T12:37:30.093Z,24.93
2019-03-29T12:40:01.416Z,24.84
2019-03-29T12:42:32.520Z,24.51
2019-03-29T12:45:03.678Z,24.27
2019-03-29T12:47:35.006Z,23.30
2019-03-29T12:50:06.360Z,24.04
2019-03-29T12:52:37.635Z,25.56
2019-03-29T12:55:08.868Z,25.31
2019-03-29T12:57:40.089Z,25.65
2019-03-29T13:00:13.251Z,25.20
2019-03-29T13:02:44.567Z,25.73
2019-03-29T13:05:15.786Z,24.80
2019-03-29T13:07:53.158Z,24.18
2019-03-29T13:10:23.383Z,23.63
2019-03-29T13:12:54.649Z,24.31
2019-03-29T13:15:26.061Z,23.80
2019-03-29T13:17:57.306Z,24.14
2019-03-29T13:20:28.501Z,23.09
2019-03-29T13:22:59.754Z,22.31
2019-03-29T13:25:30.916Z,22.52
2019-03-29T13:28:02.201Z,21.60
2019-03-29T13:30:33.453Z,20.69
2019-03-29T13:33:04.799Z,19.82
2019-03-29T13:35:35.993Z,20.24
2019-03-29T13:38:07.239Z,19.28
2019-03-29T13:40:39.778Z,19.11
2019-03-29T13:43:10.987Z,18.66
2019-03-29T13:45:42.272Z,17.99
2019-03-29T13:48:13.586Z,17.66
2019-03-29T13:50:44.861Z,17.88
2019-03-29T13:53:16.090Z,17.74
2019-03-29T13:55:47.276Z,17.17
2019-03-29T13:58:18.552Z,16.96
2019-03-29T14:00:49.744Z,17.25
2019-03-29T14:03:21.008Z,17.37
2019-03-29T14:05:52.218Z,17.46
2019-03-29T14:08:23.523Z,16.95
2019-03-29T14:10:54.883Z,17.26
2019-03-29T14:13:26.144Z,17.08
2019-03-29T14:15:57.433Z,17.10
2019-03-29T14:18:28.703Z,17.22
2019-03-29T14:21:00.022Z,16.77
2019-03-29T14:23:31.359Z,17.02
2019-03-29T14:26:02.531Z,17.07
2019-03-29T14:28:33.658Z,17.65
2019-03-29T14:31:04.949Z,17.89
2019-03-29T14:33:36.241Z,17.10
2019-03-29T14:36:07.498Z,17.55
2019-03-29T14:38:38.800Z,17.70
2019-03-29T14:41:10.027Z,18.08
2019-03-29T14:43:41.337Z,18.57
2019-03-29T14:46:12.567Z,19.04
2019-03-29T14:48:43.836Z,19.83
2019-03-29T14:51:15.046Z,19.76
2019-03-29T14:53:46.192Z,20.87
2019-03-29T14:56:17.379Z,21.28
2019-03-29T14:58:48.630Z,20.84
2019-03-29T15:01:19.888Z,20.63
2019-03-29T15:03:51.143Z,19.41
2019-03-29T15:06:22.262Z,18.77
2019-03-29T15:08:53.648Z,18.09
2019-03-29T15:11:24.952Z,17.35
2019-03-29T15:13:56.166Z,16.97
2019-03-29T15:16:27.427Z,16.41
2019-03-29T15:18:58.696Z,15.98
2019-03-29T15:21:30.023Z,15.58
2019-03-29T15:24:01.232Z,15.50
2019-03-29T15:26:32.415Z,15.45
2019-03-29T15:29:03.680Z,15.52
2019-03-29T15:31:35.482Z,15.61
2019-03-29T15:34:06.636Z,15.27
2019-03-29T15:36:37.971Z,15.04
2019-03-29T15:39:09.603Z,15.12
2019-03-29T15:41:40.850Z,15.04
2019-03-29T15:44:12.139Z,15.04
2019-03-29T15:46:43.419Z,15.11
2019-03-29T15:49:14.653Z,15.21
2019-03-29T15:51:45.918Z,15.20
2019-03-29T15:54:17.223Z,15.15
2019-03-29T15:56:48.519Z,15.17
2019-03-29T15:59:19.765Z,15.24
2019-03-29T16:01:51.067Z,15.29
2019-03-29T16:04:22.387Z,15.31
2019-03-29T16:06:53.680Z,15.22
2019-03-29T16:09:24.930Z,15.19
2019-03-29T16:11:56.150Z,15.18
2019-03-29T16:14:27.423Z,15.11
2019-03-29T16:16:58.609Z,14.99
2019-03-29T16:19:29.810Z,14.69
2019-03-29T16:22:01.043Z,14.48
2019-03-29T16:24:32.411Z,14.39
2019-03-29T16:27:03.655Z,14.39
2019-03-29T16:29:34.834Z,14.36
2019-03-29T16:32:06.134Z,14.27
2019-03-29T16:34:37.448Z,14.35
2019-03-29T16:37:08.697Z,14.40
2019-03-29T16:39:40.001Z,14.31
2019-03-29T16:42:11.118Z,14.29
2019-03-29T16:44:42.446Z,14.30
2019-03-29T16:47:13.774Z,14.18
2019-03-29T16:49:44.962Z,14.01
2019-03-29T16:52:16.288Z,14.05
2019-03-29T16:54:47.474Z,14.02
2019-03-29T16:57:18.785Z,13.93
2019-03-29T16:59:50.023Z,13.85
2019-03-29T17:02:21.383Z,13.75
2019-03-29T17:04:52.708Z,13.70
2019-03-29T17:07:24.106Z,13.69
2019-03-29T17:09:55.341Z,13.67
2019-03-29T17:12:26.540Z,13.57
2019-03-29T17:14:57.765Z,13.50
2019-03-29T17:17:29.027Z,13.44
2019-03-29T17:20:00.493Z,13.38
2019-03-29T17:22:31.825Z,13.35
2019-03-29T17:25:03.190Z,13.34
2019-03-29T17:27:34.342Z,13.24
2019-03-29T17:30:07.531Z,13.19
2019-03-29T17:32:38.713Z,13.07
2019-03-29T17:35:10.077Z,12.96
2019-03-29T17:37:41.341Z,12.82
2019-03-29T17:40:13.267Z,12.69
2019-03-29T17:42:44.484Z,12.67
2019-03-29T17:45:15.748Z,12.62
2019-03-29T17:47:47.023Z,12.53
2019-03-29T17:50:18.168Z,12.44
2019-03-29T17:52:49.418Z,12.41
2019-03-29T17:55:20.631Z,12.35
2019-03-29T17:57:51.862Z,12.29
2019-03-29T18:00:24.770Z,12.17
2019-03-29T18:02:56.077Z,12.08
2019-03-29T18:05:27.370Z,11.99
2019-03-29T18:07:58.624Z,11.94
2019-03-29T18:10:29.995Z,11.90
2019-03-29T18:13:01.356Z,11.74
2019-03-29T18:15:32.681Z,11.66
2019-03-29T18:18:03.901Z,11.52
2019-03-29T18:20:35.156Z,11.48
2019-03-29T18:23:06.521Z,11.51
2019-03-29T18:25:37.831Z,11.49
2019-03-29T18:28:09.180Z,11.43
2019-03-29T18:30:42.885Z,11.44
2019-03-29T18:33:14.236Z,11.39
2019-03-29T18:35:45.460Z,11.40
2019-03-29T18:38:16.715Z,11.36
2019-03-29T18:40:49.194Z,11.26
2019-03-29T18:43:20.355Z,11.20
2019-03-29T18:45:51.616Z,11.14
2019-03-29T18:48:23.027Z,11.02
2019-03-29T18:50:54.253Z,10.86
2019-03-29T18:53:25.616Z,10.66
2019-03-29T18:55:56.957Z,10.54
2019-03-29T18:58:28.314Z,10.48
2019-03-29T19:00:59.492Z,10.47
2019-03-29T19:03:30.900Z,10.39
2019-03-29T19:06:02.197Z,10.27
2019-03-29T19:08:33.449Z,10.17
2019-03-29T19:11:05.034Z,10.13
2019-03-29T19:13:36.416Z,10.13
2019-03-29T19:16:07.571Z,10.11
2019-03-29T19:18:38.869Z,10.10
2019-03-29T19:21:10.187Z,10.07
2019-03-29T19:23:41.508Z,9.99
2019-03-29T19:26:12.704Z,9.90
2019-03-29T19:28:43.976Z,9.84
2019-03-29T19:31:15.316Z,9.70
2019-03-29T19:33:46.572Z,9.62
2019-03-29T19:36:17.873Z,9.51
2019-03-29T19:38:49.198Z,9.42
2019-03-29T19:41:20.448Z,9.20
2019-03-29T19:43:51.741Z,9.05
2019-03-29T19:46:22.991Z,8.98
2019-03-29T19:48:54.377Z,8.97
2019-03-29T19:51:25.528Z,8.90
2019-03-29T19:54:07.247Z,8.77
2019-03-29T19:56:29.919Z,8.72
2019-03-29T19:59:01.127Z,8.61
2019-03-29T20:01:32.626Z,8.59
2019-03-29T20:04:03.934Z,8.42
2019-03-29T20:06:35.227Z,8.32
2019-03-29T20:09:09.053Z,8.30
2019-03-29T20:11:40.167Z,8.15
2019-03-29T20:14:11.374Z,8.12
2019-03-29T20:16:42.568Z,8.05
2019-03-29T20:19:13.897Z,7.93
2019-03-29T20:21:45.236Z,7.90
2019-03-29T20:24:16.483Z,7.74
2019-03-29T20:26:47.792Z,7.71
2019-03-29T20:29:18.987Z,7.69
2019-03-29T20:31:50.833Z,7.62
2019-03-29T20:34:23.171Z,7.54
2019-03-29T20:36:54.436Z,7.47
2019-03-29T20:39:25.907Z,7.42
2019-03-29T20:41:57.031Z,7.42
2019-03-29T20:44:28.204Z,7.49
2019-03-29T20:46:59.527Z,7.45
2019-03-29T20:49:30.744Z,7.25
2019-03-29T20:52:02.061Z,7.06
2019-03-29T20:54:33.331Z,6.93
2019-03-29T20:57:04.597Z,6.79
2019-03-29T20:59:35.791Z,6.70
2019-03-29T21:02:08.761Z,6.67
2019-03-29T21:04:40.046Z,6.59
2019-03-29T21:07:11.307Z,6.63
2019-03-29T21:09:42.561Z,6.74
2019-03-29T21:12:13.908Z,6.94
2019-03-29T21:14:45.165Z,7.08
2019-03-29T21:17:16.456Z,7.12
2019-03-29T21:19:47.751Z,7.13
2019-03-29T21:22:18.960Z,7.09
2019-03-29T21:24:50.221Z,7.04
2019-03-29T21:27:21.570Z,6.95
2019-03-29T21:29:52.927Z,6.95
2019-03-29T21:32:24.215Z,6.95
2019-03-29T21:34:55.378Z,6.85
2019-03-29T21:37:26.565Z,6.72
2019-03-29T21:39:57.868Z,6.75
2019-03-29T21:42:29.119Z,6.79
2019-03-29T21:45:00.344Z,6.73
2019-03-29T21:47:31.610Z,6.72
2019-03-29T21:50:02.904Z,6.79
2019-03-29T21:52:34.227Z,6.76
2019-03-29T21:55:06.528Z,6.81
2019-03-29T21:57:37.785Z,6.73
2019-03-29T22:00:11.038Z,6.73
2019-03-29T22:02:42.194Z,6.74
2019-03-29T22:05:13.585Z,6.79
2019-03-29T22:07:44.947Z,6.79
2019-03-29T22:10:16.362Z,6.78
2019-03-29T22:12:47.606Z,6.69
2019-03-29T22:15:18.908Z,6.66
2019-03-29T22:17:50.169Z,6.61
2019-03-29T22:20:21.279Z,6.53
2019-03-29T22:22:52.594Z,6.53
2019-03-29T22:25:23.877Z,6.47
2019-03-29T22:27:55.091Z,6.33
2019-03-29T22:30:26.386Z,6.33
2019-03-29T22:32:57.847Z,6.29
2019-03-29T22:35:29.050Z,6.25
2019-03-29T22:38:00.363Z,6.19
2019-03-29T22:40:31.560Z,6.09
2019-03-29T22:43:02.854Z,5.96
2019-03-29T22:45:34.058Z,6.02
2019-03-29T22:48:05.350Z,6.04
2019-03-29T22:50:36.523Z,6.06
2019-03-29T22:53:07.774Z,6.03
2019-03-29T22:55:38.940Z,5.96
2019-03-29T22:58:10.093Z,5.85
2019-03-29T23:00:46.472Z,5.89
2019-03-29T23:03:18.280Z,5.89
2019-03-29T23:05:49.500Z,5.87
2019-03-29T23:08:20.716Z,5.81
2019-03-29T23:10:51.960Z,5.63
2019-03-29T23:13:23.037Z,5.58
2019-03-29T23:15:54.306Z,5.35
2019-03-29T23:18:25.601Z,5.30
2019-03-29T23:20:56.851Z,5.27
2019-03-29T23:23:28.064Z,5.27
2019-03-29T23:25:59.386Z,5.27
2019-03-29T23:28:30.631Z,5.32
2019-03-29T23:31:05.395Z,5.40
2019-03-29T23:33:34.918Z,5.42
2019-03-29T23:36:06.134Z,5.42
2019-03-29T23:38:37.403Z,5.41
2019-03-29T23:41:08.616Z,5.39
2019-03-29T23:43:39.843Z,5.43
2019-03-29T23:46:11.061Z,5.46
2019-03-29T23:48:42.360Z,5.42
2019-03-29T23:51:13.476Z,5.25
2019-03-29T23:53:44.709Z,5.24
2019-03-29T23:56:16.085Z,5.18
2019-03-29T23:58:47.247Z,5.06
